sensor_id;sensor_type;location;lat;lon;timestamp;temperature;humidity
67974;DHT22;54756;51.140;6.952;2022-12-16T00:00:24;-7.80;78.80
67974;DHT22;54756;51.140;6.952;2022-12-16T00:02:25;-7.90;78.60
67974;DHT22;54756;51.140;6.952;2022-12-16T00:04:25;-7.90;78.60
67974;DHT22;54756;51.140;6.952;2022-12-16T00:06:29;-7.90;78.60
67974;DHT22;54756;51.140;6.952;2022-12-16T00:08:36;-7.90;78.60
67974;DHT22;54756;51.140;6.952;2022-12-16T00:10:37;-7.90;78.60
67974;DHT22;54756;51.140;6.952;2022-12-16T00:12:52;-7.90;78.60
67974;DHT22;54756;51.140;6.952;2022-12-16T00:14:52;-7.90;78.90
67974;DHT22;54756;51.140;6.952;2022-12-16T00:16:54;-7.90;79.30
67974;DHT22;54756;51.140;6.952;2022-12-16T00:18:54;-7.90;79.30
67974;DHT22;54756;51.140;6.952;2022-12-16T00:20:55;-7.80;79.60
67974;DHT22;54756;51.140;6.952;2022-12-16T00:22:56;-7.80;80.20
67974;DHT22;54756;51.140;6.952;2022-12-16T00:24:56;-7.80;81.00
67974;DHT22;54756;51.140;6.952;2022-12-16T00:26:57;-7.70;81.70
67974;DHT22;54756;51.140;6.952;2022-12-16T00:28:57;-7.60;81.90
67974;DHT22;54756;51.140;6.952;2022-12-16T00:32:58;-7.50;82.60
67974;DHT22;54756;51.140;6.952;2022-12-16T00:34:58;-7.50;82.70
67974;DHT22;54756;51.140;6.952;2022-12-16T00:36:59;-7.50;82.70
67974;DHT22;54756;51.140;6.952;2022-12-16T00:39:00;-7.50;82.70
67974;DHT22;54756;51.140;6.952;2022-12-16T00:41:00;-7.50;82.70
67974;DHT22;54756;51.140;6.952;2022-12-16T00:43:01;-7.50;82.70
67974;DHT22;54756;51.140;6.952;2022-12-16T00:45:02;-7.50;82.70
67974;DHT22;54756;51.140;6.952;2022-12-16T00:47:04;-7.40;83.00
67974;DHT22;54756;51.140;6.952;2022-12-16T00:49:04;-7.40;83.30
67974;DHT22;54756;51.140;6.952;2022-12-16T00:51:05;-7.40;83.30
67974;DHT22;54756;51.140;6.952;2022-12-16T00:53:06;-7.40;83.20
67974;DHT22;54756;51.140;6.952;2022-12-16T00:55:06;-7.40;82.90
67974;DHT22;54756;51.140;6.952;2022-12-16T00:57:07;-7.50;82.70
67974;DHT22;54756;51.140;6.952;2022-12-16T00:59:08;-7.40;82.80
67974;DHT22;54756;51.140;6.952;2022-12-16T01:01:09;-7.40;82.80
67974;DHT22;54756;51.140;6.952;2022-12-16T01:03:09;-7.40;82.90
67974;DHT22;54756;51.140;6.952;2022-12-16T01:05:12;-7.40;83.10
67974;DHT22;54756;51.140;6.952;2022-12-16T01:07:13;-7.50;83.00
67974;DHT22;54756;51.140;6.952;2022-12-16T01:09:14;-7.40;83.20
67974;DHT22;54756;51.140;6.952;2022-12-16T01:11:16;-7.40;83.40
67974;DHT22;54756;51.140;6.952;2022-12-16T01:13:17;-7.40;83.50
67974;DHT22;54756;51.140;6.952;2022-12-16T01:15:18;-7.40;83.50
67974;DHT22;54756;51.140;6.952;2022-12-16T01:17:19;-7.40;83.50
67974;DHT22;54756;51.140;6.952;2022-12-16T01:19:19;-7.50;83.10
67974;DHT22;54756;51.140;6.952;2022-12-16T01:21:20;-7.50;82.70
67974;DHT22;54756;51.140;6.952;2022-12-16T01:23:20;-7.60;82.60
67974;DHT22;54756;51.140;6.952;2022-12-16T01:25:21;-7.60;82.40
67974;DHT22;54756;51.140;6.952;2022-12-16T01:27:21;-7.60;82.20
67974;DHT22;54756;51.140;6.952;2022-12-16T01:29:22;-7.70;81.80
67974;DHT22;54756;51.140;6.952;2022-12-16T01:31:23;-7.70;81.60
67974;DHT22;54756;51.140;6.952;2022-12-16T01:33:23;-7.80;81.30
67974;DHT22;54756;51.140;6.952;2022-12-16T01:35:24;-7.70;81.30
67974;DHT22;54756;51.140;6.952;2022-12-16T01:37:24;-7.80;81.30
67974;DHT22;54756;51.140;6.952;2022-12-16T01:39:25;-7.80;81.50
67974;DHT22;54756;51.140;6.952;2022-12-16T01:41:26;-7.80;81.30
67974;DHT22;54756;51.140;6.952;2022-12-16T01:43:31;-7.80;81.20
67974;DHT22;54756;51.140;6.952;2022-12-16T01:45:33;-7.80;81.20
67974;DHT22;54756;51.140;6.952;2022-12-16T01:47:35;-7.90;81.10
67974;DHT22;54756;51.140;6.952;2022-12-16T01:50:10;-7.90;81.10
67974;DHT22;54756;51.140;6.952;2022-12-16T01:52:07;-7.90;81.10
67974;DHT22;54756;51.140;6.952;2022-12-16T01:54:14;-7.90;81.00
67974;DHT22;54756;51.140;6.952;2022-12-16T01:56:17;-7.90;81.00
67974;DHT22;54756;51.140;6.952;2022-12-16T01:58:25;-7.90;80.80
67974;DHT22;54756;51.140;6.952;2022-12-16T02:00:27;-8.00;80.70
67974;DHT22;54756;51.140;6.952;2022-12-16T02:02:27;-8.00;80.70
67974;DHT22;54756;51.140;6.952;2022-12-16T02:04:28;-8.00;80.70
67974;DHT22;54756;51.140;6.952;2022-12-16T02:06:30;-7.90;80.80
67974;DHT22;54756;51.140;6.952;2022-12-16T02:08:31;-7.90;81.00
67974;DHT22;54756;51.140;6.952;2022-12-16T02:12:51;-7.80;82.10
67974;DHT22;54756;51.140;6.952;2022-12-16T02:15:06;-7.80;82.40
67974;DHT22;54756;51.140;6.952;2022-12-16T02:17:26;-7.80;82.40
67974;DHT22;54756;51.140;6.952;2022-12-16T02:24:29;-7.90;81.60
67974;DHT22;54756;51.140;6.952;2022-12-16T02:28:51;-8.00;81.00
67974;DHT22;54756;51.140;6.952;2022-12-16T02:36:10;-8.00;80.70
67974;DHT22;54756;51.140;6.952;2022-12-16T02:40:33;-8.00;81.00
67974;DHT22;54756;51.140;6.952;2022-12-16T02:42:42;-8.10;80.90
67974;DHT22;54756;51.140;6.952;2022-12-16T02:44:53;-8.10;80.70
67974;DHT22;54756;51.140;6.952;2022-12-16T02:46:54;-8.10;80.50
67974;DHT22;54756;51.140;6.952;2022-12-16T02:48:55;-8.20;80.30
67974;DHT22;54756;51.140;6.952;2022-12-16T02:50:56;-8.20;80.20
67974;DHT22;54756;51.140;6.952;2022-12-16T02:52:57;-8.20;80.20
67974;DHT22;54756;51.140;6.952;2022-12-16T02:55:02;-8.20;80.10
67974;DHT22;54756;51.140;6.952;2022-12-16T02:57:24;-8.20;80.50
67974;DHT22;54756;51.140;6.952;2022-12-16T03:01:45;-8.10;81.50
67974;DHT22;54756;51.140;6.952;2022-12-16T03:05:58;-8.00;82.20
67974;DHT22;54756;51.140;6.952;2022-12-16T03:08:02;-8.00;82.20
67974;DHT22;54756;51.140;6.952;2022-12-16T03:10:07;-8.00;82.40
67974;DHT22;54756;51.140;6.952;2022-12-16T03:12:12;-8.00;82.50
67974;DHT22;54756;51.140;6.952;2022-12-16T03:14:15;-8.00;82.70
67974;DHT22;54756;51.140;6.952;2022-12-16T03:16:18;-7.90;82.90
67974;DHT22;54756;51.140;6.952;2022-12-16T03:18:20;-7.90;82.90
67974;DHT22;54756;51.140;6.952;2022-12-16T03:20:29;-7.90;83.70
67974;DHT22;54756;51.140;6.952;2022-12-16T03:22:34;-7.90;83.00
67974;DHT22;54756;51.140;6.952;2022-12-16T03:24:36;-7.90;83.00
67974;DHT22;54756;51.140;6.952;2022-12-16T03:26:45;-7.90;83.00
67974;DHT22;54756;51.140;6.952;2022-12-16T03:29:02;-7.90;82.90
67974;DHT22;54756;51.140;6.952;2022-12-16T03:33:22;-8.00;82.70
67974;DHT22;54756;51.140;6.952;2022-12-16T03:38:25;-8.00;82.70
67974;DHT22;54756;51.140;6.952;2022-12-16T03:40:27;-8.00;82.50
67974;DHT22;54756;51.140;6.952;2022-12-16T03:42:28;-8.10;82.10
67974;DHT22;54756;51.140;6.952;2022-12-16T03:44:30;-8.20;81.80
67974;DHT22;54756;51.140;6.952;2022-12-16T03:46:31;-8.20;81.40
67974;DHT22;54756;51.140;6.952;2022-12-16T03:48:33;-8.20;81.30
67974;DHT22;54756;51.140;6.952;2022-12-16T03:50:35;-8.30;81.20
67974;DHT22;54756;51.140;6.952;2022-12-16T03:52:36;-8.30;81.20
67974;DHT22;54756;51.140;6.952;2022-12-16T03:54:36;-8.30;81.20
67974;DHT22;54756;51.140;6.952;2022-12-16T03:56:37;-8.30;81.20
67974;DHT22;54756;51.140;6.952;2022-12-16T03:58:38;-8.30;81.30
67974;DHT22;54756;51.140;6.952;2022-12-16T04:00:39;-8.30;81.50
67974;DHT22;54756;51.140;6.952;2022-12-16T04:02:40;-8.30;81.50
67974;DHT22;54756;51.140;6.952;2022-12-16T04:04:41;-8.40;81.30
67974;DHT22;54756;51.140;6.952;2022-12-16T04:06:41;-8.40;81.30
67974;DHT22;54756;51.140;6.952;2022-12-16T04:08:42;-8.40;81.30
67974;DHT22;54756;51.140;6.952;2022-12-16T04:10:42;-8.40;81.30
67974;DHT22;54756;51.140;6.952;2022-12-16T04:13:01;-8.40;81.30
67974;DHT22;54756;51.140;6.952;2022-12-16T04:15:20;-8.40;81.30
67974;DHT22;54756;51.140;6.952;2022-12-16T04:17:40;-8.40;81.60
67974;DHT22;54756;51.140;6.952;2022-12-16T04:19:59;-8.40;81.80
67974;DHT22;54756;51.140;6.952;2022-12-16T04:22:21;-8.30;82.10
67974;DHT22;54756;51.140;6.952;2022-12-16T04:24:41;-8.30;82.30
67974;DHT22;54756;51.140;6.952;2022-12-16T04:26:42;-8.30;82.40
67974;DHT22;54756;51.140;6.952;2022-12-16T04:29:01;-8.30;82.40
67974;DHT22;54756;51.140;6.952;2022-12-16T04:31:01;-8.30;82.50
67974;DHT22;54756;51.140;6.952;2022-12-16T04:33:06;-8.30;82.40
67974;DHT22;54756;51.140;6.952;2022-12-16T04:35:27;-8.30;82.40
67974;DHT22;54756;51.140;6.952;2022-12-16T04:37:46;-8.30;82.40
67974;DHT22;54756;51.140;6.952;2022-12-16T04:40:06;-8.30;82.50
67974;DHT22;54756;51.140;6.952;2022-12-16T04:42:25;-8.30;82.50
67974;DHT22;54756;51.140;6.952;2022-12-16T04:44:45;-8.30;82.50
67974;DHT22;54756;51.140;6.952;2022-12-16T04:47:04;-8.30;82.70
67974;DHT22;54756;51.140;6.952;2022-12-16T04:49:23;-8.30;82.40
67974;DHT22;54756;51.140;6.952;2022-12-16T04:51:42;-8.30;82.40
67974;DHT22;54756;51.140;6.952;2022-12-16T04:54:01;-8.30;82.40
67974;DHT22;54756;51.140;6.952;2022-12-16T04:56:20;-8.40;82.40
67974;DHT22;54756;51.140;6.952;2022-12-16T04:58:39;-8.40;82.20
67974;DHT22;54756;51.140;6.952;2022-12-16T05:00:58;-8.40;81.90
67974;DHT22;54756;51.140;6.952;2022-12-16T05:03:17;-8.50;81.70
67974;DHT22;54756;51.140;6.952;2022-12-16T05:05:36;-8.50;81.70
67974;DHT22;54756;51.140;6.952;2022-12-16T05:07:55;-8.60;81.60
67974;DHT22;54756;51.140;6.952;2022-12-16T05:10:14;-8.60;81.60
67974;DHT22;54756;51.140;6.952;2022-12-16T05:12:33;-8.60;81.60
67974;DHT22;54756;51.140;6.952;2022-12-16T05:14:52;-8.60;81.60
67974;DHT22;54756;51.140;6.952;2022-12-16T05:17:11;-8.60;81.60
67974;DHT22;54756;51.140;6.952;2022-12-16T05:19:31;-8.70;81.20
67974;DHT22;54756;51.140;6.952;2022-12-16T05:21:50;-8.70;80.90
67974;DHT22;54756;51.140;6.952;2022-12-16T05:24:09;-8.70;80.80
67974;DHT22;54756;51.140;6.952;2022-12-16T05:26:28;-8.80;80.70
67974;DHT22;54756;51.140;6.952;2022-12-16T05:28:47;-8.70;80.90
67974;DHT22;54756;51.140;6.952;2022-12-16T05:31:06;-8.70;81.30
67974;DHT22;54756;51.140;6.952;2022-12-16T05:33:25;-8.70;81.50
67974;DHT22;54756;51.140;6.952;2022-12-16T05:35:45;-8.60;81.60
67974;DHT22;54756;51.140;6.952;2022-12-16T05:38:04;-8.60;81.60
67974;DHT22;54756;51.140;6.952;2022-12-16T05:40:23;-8.60;81.60
67974;DHT22;54756;51.140;6.952;2022-12-16T05:42:46;-8.60;81.60
67974;DHT22;54756;51.140;6.952;2022-12-16T05:45:05;-8.60;81.50
67974;DHT22;54756;51.140;6.952;2022-12-16T05:47:25;-8.70;81.00
67974;DHT22;54756;51.140;6.952;2022-12-16T05:49:45;-8.70;80.80
67974;DHT22;54756;51.140;6.952;2022-12-16T05:52:04;-8.70;80.80
67974;DHT22;54756;51.140;6.952;2022-12-16T05:54:23;-8.70;80.80
67974;DHT22;54756;51.140;6.952;2022-12-16T05:56:42;-8.70;80.60
67974;DHT22;54756;51.140;6.952;2022-12-16T05:59:01;-8.70;80.50
67974;DHT22;54756;51.140;6.952;2022-12-16T06:01:20;-8.70;80.40
67974;DHT22;54756;51.140;6.952;2022-12-16T06:03:39;-8.70;80.50
67974;DHT22;54756;51.140;6.952;2022-12-16T06:05:58;-8.70;80.70
67974;DHT22;54756;51.140;6.952;2022-12-16T06:08:17;-8.70;80.70
67974;DHT22;54756;51.140;6.952;2022-12-16T06:10:36;-8.70;80.60
67974;DHT22;54756;51.140;6.952;2022-12-16T06:12:55;-8.70;80.70
67974;DHT22;54756;51.140;6.952;2022-12-16T06:15:14;-8.70;80.60
67974;DHT22;54756;51.140;6.952;2022-12-16T06:17:33;-8.70;80.40
67974;DHT22;54756;51.140;6.952;2022-12-16T06:19:52;-8.70;80.40
67974;DHT22;54756;51.140;6.952;2022-12-16T06:22:11;-8.70;80.30
67974;DHT22;54756;51.140;6.952;2022-12-16T06:24:30;-8.70;80.30
67974;DHT22;54756;51.140;6.952;2022-12-16T06:26:49;-8.70;80.30
67974;DHT22;54756;51.140;6.952;2022-12-16T06:29:08;-8.70;80.30
67974;DHT22;54756;51.140;6.952;2022-12-16T06:31:27;-8.70;80.30
67974;DHT22;54756;51.140;6.952;2022-12-16T06:33:46;-8.70;80.30
67974;DHT22;54756;51.140;6.952;2022-12-16T06:36:06;-8.80;80.20
67974;DHT22;54756;51.140;6.952;2022-12-16T06:38:24;-8.70;80.40
67974;DHT22;54756;51.140;6.952;2022-12-16T06:40:44;-8.80;80.40
67974;DHT22;54756;51.140;6.952;2022-12-16T06:43:07;-8.80;80.30
67974;DHT22;54756;51.140;6.952;2022-12-16T06:45:26;-8.80;80.20
67974;DHT22;54756;51.140;6.952;2022-12-16T06:47:46;-8.80;80.20
67974;DHT22;54756;51.140;6.952;2022-12-16T06:50:05;-8.80;80.20
67974;DHT22;54756;51.140;6.952;2022-12-16T06:52:24;-8.90;80.00
67974;DHT22;54756;51.140;6.952;2022-12-16T06:54:43;-8.90;80.00
67974;DHT22;54756;51.140;6.952;2022-12-16T06:57:02;-8.90;79.90
67974;DHT22;54756;51.140;6.952;2022-12-16T06:59:21;-8.80;80.20
67974;DHT22;54756;51.140;6.952;2022-12-16T07:01:40;-8.80;80.50
67974;DHT22;54756;51.140;6.952;2022-12-16T07:03:59;-8.80;80.70
67974;DHT22;54756;51.140;6.952;2022-12-16T07:06:18;-8.80;80.80
67974;DHT22;54756;51.140;6.952;2022-12-16T07:08:37;-8.70;82.10
67974;DHT22;54756;51.140;6.952;2022-12-16T07:10:56;-8.70;81.50
67974;DHT22;54756;51.140;6.952;2022-12-16T07:13:15;-8.70;81.70
67974;DHT22;54756;51.140;6.952;2022-12-16T07:15:34;-8.60;82.20
67974;DHT22;54756;51.140;6.952;2022-12-16T07:17:54;-8.60;82.20
67974;DHT22;54756;51.140;6.952;2022-12-16T07:20:13;-8.60;82.30
67974;DHT22;54756;51.140;6.952;2022-12-16T07:22:31;-8.60;82.10
67974;DHT22;54756;51.140;6.952;2022-12-16T07:24:50;-8.60;81.90
67974;DHT22;54756;51.140;6.952;2022-12-16T07:27:09;-8.60;81.60
67974;DHT22;54756;51.140;6.952;2022-12-16T07:29:28;-8.60;82.00
67974;DHT22;54756;51.140;6.952;2022-12-16T07:31:47;-8.60;81.60
67974;DHT22;54756;51.140;6.952;2022-12-16T07:34:06;-8.50;82.00
67974;DHT22;54756;51.140;6.952;2022-12-16T07:36:26;-8.50;82.10
67974;DHT22;54756;51.140;6.952;2022-12-16T07:38:46;-8.40;82.30
67974;DHT22;54756;51.140;6.952;2022-12-16T07:41:06;-8.40;82.40
67974;DHT22;54756;51.140;6.952;2022-12-16T07:43:25;-8.40;82.50
67974;DHT22;54756;51.140;6.952;2022-12-16T07:45:44;-8.30;82.70
67974;DHT22;54756;51.140;6.952;2022-12-16T07:48:03;-8.30;82.80
67974;DHT22;54756;51.140;6.952;2022-12-16T07:50:22;-8.20;82.80
67974;DHT22;54756;51.140;6.952;2022-12-16T07:52:41;-8.20;82.70
67974;DHT22;54756;51.140;6.952;2022-12-16T07:55:00;-8.20;82.60
67974;DHT22;54756;51.140;6.952;2022-12-16T07:57:19;-8.20;82.50
67974;DHT22;54756;51.140;6.952;2022-12-16T07:59:39;-8.20;82.30
67974;DHT22;54756;51.140;6.952;2022-12-16T08:01:58;-8.20;82.10
67974;DHT22;54756;51.140;6.952;2022-12-16T08:04:17;-8.10;82.10
67974;DHT22;54756;51.140;6.952;2022-12-16T08:06:36;-8.10;82.10
67974;DHT22;54756;51.140;6.952;2022-12-16T08:08:55;-8.10;82.10
67974;DHT22;54756;51.140;6.952;2022-12-16T08:11:14;-8.00;82.20
67974;DHT22;54756;51.140;6.952;2022-12-16T08:13:33;-8.00;82.20
67974;DHT22;54756;51.140;6.952;2022-12-16T08:15:52;-8.00;82.20
67974;DHT22;54756;51.140;6.952;2022-12-16T08:18:11;-7.90;82.30
67974;DHT22;54756;51.140;6.952;2022-12-16T08:20:30;-7.90;82.30
67974;DHT22;54756;51.140;6.952;2022-12-16T08:23:03;-7.90;82.20
67974;DHT22;54756;51.140;6.952;2022-12-16T08:25:23;-7.80;82.10
67974;DHT22;54756;51.140;6.952;2022-12-16T08:27:42;-7.80;81.90
67974;DHT22;54756;51.140;6.952;2022-12-16T08:30:02;-7.80;81.80
67974;DHT22;54756;51.140;6.952;2022-12-16T08:32:21;-7.70;81.90
67974;DHT22;54756;51.140;6.952;2022-12-16T08:34:40;-7.70;81.90
67974;DHT22;54756;51.140;6.952;2022-12-16T08:36:59;-7.60;82.10
67974;DHT22;54756;51.140;6.952;2022-12-16T08:39:18;-7.50;82.10
67974;DHT22;54756;51.140;6.952;2022-12-16T08:41:37;-7.50;82.10
67974;DHT22;54756;51.140;6.952;2022-12-16T08:43:56;-7.40;82.10
67974;DHT22;54756;51.140;6.952;2022-12-16T08:46:16;-7.30;82.20
67974;DHT22;54756;51.140;6.952;2022-12-16T08:48:35;-7.30;82.20
67974;DHT22;54756;51.140;6.952;2022-12-16T08:50:54;-7.20;82.20
67974;DHT22;54756;51.140;6.952;2022-12-16T08:53:13;-7.20;81.90
67974;DHT22;54756;51.140;6.952;2022-12-16T08:55:32;-7.10;81.90
67974;DHT22;54756;51.140;6.952;2022-12-16T08:57:53;-7.10;81.80
67974;DHT22;54756;51.140;6.952;2022-12-16T09:00:12;-7.00;81.90
67974;DHT22;54756;51.140;6.952;2022-12-16T09:02:31;-7.00;81.80
67974;DHT22;54756;51.140;6.952;2022-12-16T09:04:50;-6.90;82.00
67974;DHT22;54756;51.140;6.952;2022-12-16T09:07:09;-6.80;82.10
67974;DHT22;54756;51.140;6.952;2022-12-16T09:09:28;-6.80;82.00
67974;DHT22;54756;51.140;6.952;2022-12-16T09:11:47;-6.70;82.10
67974;DHT22;54756;51.140;6.952;2022-12-16T09:14:06;-6.60;82.20
67974;DHT22;54756;51.140;6.952;2022-12-16T09:16:25;-6.60;82.20
67974;DHT22;54756;51.140;6.952;2022-12-16T09:18:44;-6.50;82.20
67974;DHT22;54756;51.140;6.952;2022-12-16T09:21:03;-6.50;82.00
67974;DHT22;54756;51.140;6.952;2022-12-16T09:23:22;-6.40;82.00
67974;DHT22;54756;51.140;6.952;2022-12-16T09:25:42;-6.30;82.00
67974;DHT22;54756;51.140;6.952;2022-12-16T09:28:01;-6.20;82.00
67974;DHT22;54756;51.140;6.952;2022-12-16T09:30:19;-6.10;81.90
67974;DHT22;54756;51.140;6.952;2022-12-16T09:32:43;-6.10;81.80
67974;DHT22;54756;51.140;6.952;2022-12-16T09:35:02;-6.00;81.70
67974;DHT22;54756;51.140;6.952;2022-12-16T09:37:21;-5.90;81.70
67974;DHT22;54756;51.140;6.952;2022-12-16T09:39:40;-5.90;81.60
67974;DHT22;54756;51.140;6.952;2022-12-16T09:47:30;-5.70;81.40
67974;DHT22;54756;51.140;6.952;2022-12-16T09:49:53;-5.60;81.60
67974;DHT22;54756;51.140;6.952;2022-12-16T09:52:16;-5.50;81.60
67974;DHT22;54756;51.140;6.952;2022-12-16T09:54:47;-5.50;81.50
67974;DHT22;54756;51.140;6.952;2022-12-16T09:57:07;-5.40;81.40
67974;DHT22;54756;51.140;6.952;2022-12-16T09:59:33;-5.30;81.30
67974;DHT22;54756;51.140;6.952;2022-12-16T10:01:54;-5.30;81.10
67974;DHT22;54756;51.140;6.952;2022-12-16T10:04:15;-5.30;81.10
67974;DHT22;54756;51.140;6.952;2022-12-16T10:09:11;-5.10;81.40
67974;DHT22;54756;51.140;6.952;2022-12-16T10:14:11;-5.00;81.70
67974;DHT22;54756;51.140;6.952;2022-12-16T10:16:52;-4.90;81.80
67974;DHT22;54756;51.140;6.952;2022-12-16T10:19:37;-4.80;81.70
67974;DHT22;54756;51.140;6.952;2022-12-16T10:22:14;-4.70;81.60
67974;DHT22;54756;51.140;6.952;2022-12-16T10:24:51;-4.70;81.50
67974;DHT22;54756;51.140;6.952;2022-12-16T10:27:15;-4.60;81.30
67974;DHT22;54756;51.140;6.952;2022-12-16T10:29:38;-4.60;81.10
67974;DHT22;54756;51.140;6.952;2022-12-16T10:31:59;-4.50;80.80
67974;DHT22;54756;51.140;6.952;2022-12-16T10:34:23;-4.50;80.70
67974;DHT22;54756;51.140;6.952;2022-12-16T10:36:45;-4.40;80.80
67974;DHT22;54756;51.140;6.952;2022-12-16T10:39:24;-4.40;80.90
67974;DHT22;54756;51.140;6.952;2022-12-16T10:41:48;-4.40;80.90
67974;DHT22;54756;51.140;6.952;2022-12-16T10:46:43;-4.20;81.00
67974;DHT22;54756;51.140;6.952;2022-12-16T10:49:02;-4.10;81.20
67974;DHT22;54756;51.140;6.952;2022-12-16T10:51:23;-4.00;81.30
67974;DHT22;54756;51.140;6.952;2022-12-16T10:53:44;-3.90;81.40
67974;DHT22;54756;51.140;6.952;2022-12-16T10:58:57;-3.70;81.60
67974;DHT22;54756;51.140;6.952;2022-12-16T11:01:25;-3.60;81.50
67974;DHT22;54756;51.140;6.952;2022-12-16T11:03:44;-3.50;81.30
67974;DHT22;54756;51.140;6.952;2022-12-16T11:06:03;-3.50;80.60
67974;DHT22;54756;51.140;6.952;2022-12-16T11:08:26;-3.40;80.40
67974;DHT22;54756;51.140;6.952;2022-12-16T11:10:46;-3.30;80.20
67974;DHT22;54756;51.140;6.952;2022-12-16T11:13:15;-3.20;80.00
67974;DHT22;54756;51.140;6.952;2022-12-16T11:15:34;-3.20;79.50
67974;DHT22;54756;51.140;6.952;2022-12-16T11:18:01;-3.10;79.60
67974;DHT22;54756;51.140;6.952;2022-12-16T11:20:24;-3.00;79.70
67974;DHT22;54756;51.140;6.952;2022-12-16T11:22:43;-2.90;79.30
67974;DHT22;54756;51.140;6.952;2022-12-16T11:25:14;-2.90;78.60
67974;DHT22;54756;51.140;6.952;2022-12-16T11:27:33;-2.80;78.60
67974;DHT22;54756;51.140;6.952;2022-12-16T11:29:55;-2.60;78.80
67974;DHT22;54756;51.140;6.952;2022-12-16T11:32:23;-2.50;79.30
67974;DHT22;54756;51.140;6.952;2022-12-16T11:34:48;-2.30;78.90
67974;DHT22;54756;51.140;6.952;2022-12-16T11:37:08;-2.20;78.00
67974;DHT22;54756;51.140;6.952;2022-12-16T11:39:29;-2.00;78.50
67974;DHT22;54756;51.140;6.952;2022-12-16T11:41:52;-1.70;78.80
67974;DHT22;54756;51.140;6.952;2022-12-16T11:44:16;-1.50;76.90
67974;DHT22;54756;51.140;6.952;2022-12-16T11:46:36;-1.30;76.50
67974;DHT22;54756;51.140;6.952;2022-12-16T11:49:00;-1.00;76.80
67974;DHT22;54756;51.140;6.952;2022-12-16T11:51:21;-0.60;78.10
67974;DHT22;54756;51.140;6.952;2022-12-16T11:53:48;-0.10;76.30
67974;DHT22;54756;51.140;6.952;2022-12-16T11:56:13;0.30;72.90
67974;DHT22;54756;51.140;6.952;2022-12-16T11:58:49;0.60;69.80
67974;DHT22;54756;51.140;6.952;2022-12-16T12:03:59;1.40;64.40
67974;DHT22;54756;51.140;6.952;2022-12-16T12:08:57;2.00;65.00
67974;DHT22;54756;51.140;6.952;2022-12-16T12:11:31;2.40;60.00
67974;DHT22;54756;51.140;6.952;2022-12-16T12:22:29;2.90;49.50
67974;DHT22;54756;51.140;6.952;2022-12-16T12:25:16;3.40;54.50
67974;DHT22;54756;51.140;6.952;2022-12-16T12:27:48;4.50;44.30
67974;DHT22;54756;51.140;6.952;2022-12-16T12:30:21;5.50;42.50
67974;DHT22;54756;51.140;6.952;2022-12-16T12:38:27;7.60;10.80
67974;DHT22;54756;51.140;6.952;2022-12-16T12:40:58;8.10;8.70
67974;DHT22;54756;51.140;6.952;2022-12-16T12:43:43;8.40;1.00
67974;DHT22;54756;51.140;6.952;2022-12-16T12:51:13;9.60;5.60
67974;DHT22;54756;51.140;6.952;2022-12-16T12:53:44;10.00;1.00
67974;DHT22;54756;51.140;6.952;2022-12-16T12:56:36;10.50;1.00
67974;DHT22;54756;51.140;6.952;2022-12-16T12:59:03;10.70;1.00
67974;DHT22;54756;51.140;6.952;2022-12-16T13:01:28;10.00;1.00
67974;DHT22;54756;51.140;6.952;2022-12-16T13:04:02;8.90;1.00
67974;DHT22;54756;51.140;6.952;2022-12-16T13:06:23;7.80;1.00
67974;DHT22;54756;51.140;6.952;2022-12-16T13:11:12;6.30;3.80
67974;DHT22;54756;51.140;6.952;2022-12-16T13:13:33;6.40;10.90
67974;DHT22;54756;51.140;6.952;2022-12-16T13:15:52;7.00;7.60
67974;DHT22;54756;51.140;6.952;2022-12-16T13:18:17;7.80;6.60
67974;DHT22;54756;51.140;6.952;2022-12-16T13:20:37;8.50;6.00
67974;DHT22;54756;51.140;6.952;2022-12-16T13:22:56;8.80;1.00
67974;DHT22;54756;51.140;6.952;2022-12-16T13:25:37;8.30;1.00
67974;DHT22;54756;51.140;6.952;2022-12-16T13:27:57;7.40;1.00
67974;DHT22;54756;51.140;6.952;2022-12-16T13:30:20;6.40;1.00
67974;DHT22;54756;51.140;6.952;2022-12-16T13:32:56;5.50;6.00
67974;DHT22;54756;51.140;6.952;2022-12-16T13:35:17;4.80;13.00
67974;DHT22;54756;51.140;6.952;2022-12-16T13:37:36;4.20;16.90
67974;DHT22;54756;51.140;6.952;2022-12-16T13:44:58;3.50;30.20
67974;DHT22;54756;51.140;6.952;2022-12-16T13:52:59;4.80;26.80
67974;DHT22;54756;51.140;6.952;2022-12-16T13:57:54;6.30;20.90
67974;DHT22;54756;51.140;6.952;2022-12-16T14:00:23;7.00;18.70
67974;DHT22;54756;51.140;6.952;2022-12-16T14:02:43;7.50;14.90
67974;DHT22;54756;51.140;6.952;2022-12-16T14:05:03;7.60;7.60
67974;DHT22;54756;51.140;6.952;2022-12-16T14:07:24;7.40;4.20
67974;DHT22;54756;51.140;6.952;2022-12-16T14:09:47;7.10;6.40
67974;DHT22;54756;51.140;6.952;2022-12-16T14:12:10;6.40;6.70
67974;DHT22;54756;51.140;6.952;2022-12-16T14:14:41;6.00;11.20
67974;DHT22;54756;51.140;6.952;2022-12-16T14:17:07;5.80;15.70
67974;DHT22;54756;51.140;6.952;2022-12-16T14:24:52;4.80;15.50
67974;DHT22;54756;51.140;6.952;2022-12-16T14:27:14;3.90;17.20
67974;DHT22;54756;51.140;6.952;2022-12-16T14:29:34;3.10;20.90
67974;DHT22;54756;51.140;6.952;2022-12-16T14:31:53;2.40;26.50
67974;DHT22;54756;51.140;6.952;2022-12-16T14:36:39;1.20;36.10
67974;DHT22;54756;51.140;6.952;2022-12-16T14:38:58;0.70;37.30
67974;DHT22;54756;51.140;6.952;2022-12-16T14:41:20;0.30;42.40
67974;DHT22;54756;51.140;6.952;2022-12-16T14:43:42;-0.10;44.10
67974;DHT22;54756;51.140;6.952;2022-12-16T14:46:01;-0.40;47.00
67974;DHT22;54756;51.140;6.952;2022-12-16T14:48:39;-0.70;49.60
67974;DHT22;54756;51.140;6.952;2022-12-16T14:51:22;-0.90;51.00
67974;DHT22;54756;51.140;6.952;2022-12-16T14:53:41;-1.20;54.70
67974;DHT22;54756;51.140;6.952;2022-12-16T14:56:21;-1.40;56.40
67974;DHT22;54756;51.140;6.952;2022-12-16T14:58:41;-1.50;58.00
67974;DHT22;54756;51.140;6.952;2022-12-16T15:01:06;-1.60;60.20
67974;DHT22;54756;51.140;6.952;2022-12-16T15:03:35;-1.80;60.90
67974;DHT22;54756;51.140;6.952;2022-12-16T15:05:55;-1.80;61.60
67974;DHT22;54756;51.140;6.952;2022-12-16T15:08:15;-1.90;62.90
67974;DHT22;54756;51.140;6.952;2022-12-16T15:10:35;-1.90;66.80
67974;DHT22;54756;51.140;6.952;2022-12-16T15:12:54;-2.00;67.20
67974;DHT22;54756;51.140;6.952;2022-12-16T15:15:37;-2.00;67.00
67974;DHT22;54756;51.140;6.952;2022-12-16T15:18:00;-2.10;67.80
67974;DHT22;54756;51.140;6.952;2022-12-16T15:20:27;-2.10;69.50
67974;DHT22;54756;51.140;6.952;2022-12-16T15:22:48;-2.10;69.80
67974;DHT22;54756;51.140;6.952;2022-12-16T15:25:20;-2.10;70.90
67974;DHT22;54756;51.140;6.952;2022-12-16T15:27:40;-2.10;72.00
67974;DHT22;54756;51.140;6.952;2022-12-16T15:29:58;-2.10;73.80
67974;DHT22;54756;51.140;6.952;2022-12-16T15:34:48;-2.00;74.20
67974;DHT22;54756;51.140;6.952;2022-12-16T15:37:34;-2.00;74.50
67974;DHT22;54756;51.140;6.952;2022-12-16T15:39:55;-1.90;75.10
67974;DHT22;54756;51.140;6.952;2022-12-16T15:42:21;-1.90;75.90
67974;DHT22;54756;51.140;6.952;2022-12-16T15:44:57;-1.90;76.20
67974;DHT22;54756;51.140;6.952;2022-12-16T15:47:26;-1.90;77.20
67974;DHT22;54756;51.140;6.952;2022-12-16T15:49:48;-1.80;77.60
67974;DHT22;54756;51.140;6.952;2022-12-16T15:52:30;-1.80;77.40
67974;DHT22;54756;51.140;6.952;2022-12-16T15:54:52;-1.80;78.30
67974;DHT22;54756;51.140;6.952;2022-12-16T15:57:34;-1.80;78.10
67974;DHT22;54756;51.140;6.952;2022-12-16T15:59:56;-1.70;78.50